Gilmore, AR (72339)

3:17 PM CDT on July 23, 2016 (GMT -0500)
Cuba-Millington | | Change Station
Active Advisory: Heat Advisory

Elev 300 ft 35.36 °N, 89.98 °W | Updated 5 minutes ago

Scattered Clouds
Scattered Clouds
88.3 °F
Feels Like 102 °F
N
4.2
Wind Variable Wind from East

Today
High -- | Low -- °F
--% Chance of Precip.
Yesterday
High -- | Low -- °F
Precip. -- in
Pressure 29.93 in
Visibility 10.0 miles
Clouds Scattered Clouds 9000 ft
Heat Index 102 °F
Dew Point 78 °F
Humidity 71%
Rainfall 2.00 in
Snow Depth Not available.
6:03 AM 8:11 PM
Waning Gibbous, 83% visible
METAR KAWM 231953Z AUTO 14009KT 10SM SCT090 31/23 A2994 RMK AO2 SLP133 T03060228
Pressure 29.93 in
Visibility 10.0 miles
Clouds Scattered Clouds 9000 ft
Heat Index 102 °F
Dew Point 78 °F
Humidity 71%
Rainfall 2.00 in
Snow Depth Not available.
6:03 AM 8:11 PM
Waning Gibbous, 83% visible
METAR KAWM 231953Z AUTO 14009KT 10SM SCT090 31/23 A2994 RMK AO2 SLP133 T03060228

10-Day Weather Forecast

Almanac

Astronomy

Jul. 23, 2016 Rise Set
Actual Time
Civil Twilight
Nautical Twilight
Astronomical Twilight
Moon
Length of Visible Light
Length of Day
Tomorrow will be .
, % of the Moon is Illuminated

Today's Extremes

State Highs State Lows

Community

WunderPhotos

Upload Photos

1,926,913 photos uploaded!

WunderBlog® & News

Nearby

Air Quality

  Air Quality AQ Index Pollutant
Not available.

Snow Depth

Station Depth Elevation

Earthquake Activity

City Distance Mag. Time & Date
Minimum magnitude displayed is 2.5.

Coastal Water Temperatures

Place Temperature

Stations

Nearby Weather Stations

Station Location Temp. Windchill Dew Point Humidity Wind Precip. Elev Updated Type
                   

Watches & Warnings

Heat Advisory
Issued: 2:53 PM CDT Jul. 23, 2016 – National Weather Service

... Heat advisory remains in effect until 8 PM CDT Sunday...

* heat indices... .105 to 110 degrees.

* Timing... from late morning through early evening today and
Sunday... when thunderstorms are not occurring.

* Impacts... prolonged periods outdoors may result in heat
related illnesses such as heat exhaustion or heat stroke.

Precautionary/preparedness actions...

A heat advisory means that a period of hot temperatures is
expected. The combination of hot temperatures and high humidity
will combine to create a situation in which heat illnesses are
possible. Drink plenty of fluids... stay in an air-conditioned
room... stay out of the sun... and check up on relatives and
neighbors.

Take extra precautions... if you work or spend time outside. When
possible... reschedule strenuous activities to early morning or
evening. Know the signs and symptoms of heat exhaustion and heat
stroke. Wear light weight and loose fitting clothing when
possible and drink plenty of water.